sensor_id;sensor_type;location;lat;lon;timestamp;temperature;humidity
36424;DHT22;22458;45.328;9.514;2022-08-20T00:00:30;24.50;85.00
36424;DHT22;22458;45.328;9.514;2022-08-20T00:03:00;24.60;84.90
36424;DHT22;22458;45.328;9.514;2022-08-20T00:05:30;24.60;84.90
36424;DHT22;22458;45.328;9.514;2022-08-20T00:07:57;24.60;85.00
36424;DHT22;22458;45.328;9.514;2022-08-20T00:10:24;24.60;85.10
36424;DHT22;22458;45.328;9.514;2022-08-20T00:12:50;24.60;85.30
36424;DHT22;22458;45.328;9.514;2022-08-20T00:15:20;24.50;85.30
36424;DHT22;22458;45.328;9.514;2022-08-20T00:17:50;24.60;85.40
36424;DHT22;22458;45.328;9.514;2022-08-20T00:20:18;24.60;85.40
36424;DHT22;22458;45.328;9.514;2022-08-20T00:22:45;24.60;85.50
36424;DHT22;22458;45.328;9.514;2022-08-20T00:25:11;24.50;85.60
36424;DHT22;22458;45.328;9.514;2022-08-20T00:27:37;24.50;85.70
36424;DHT22;22458;45.328;9.514;2022-08-20T00:30:09;24.50;85.80
36424;DHT22;22458;45.328;9.514;2022-08-20T00:32:47;24.40;86.00
36424;DHT22;22458;45.328;9.514;2022-08-20T00:35:14;24.40;86.00
36424;DHT22;22458;45.328;9.514;2022-08-20T00:37:40;24.40;86.00
36424;DHT22;22458;45.328;9.514;2022-08-20T00:40:07;24.40;86.20
36424;DHT22;22458;45.328;9.514;2022-08-20T00:42:46;24.40;86.30
36424;DHT22;22458;45.328;9.514;2022-08-20T00:45:13;24.40;86.20
36424;DHT22;22458;45.328;9.514;2022-08-20T00:47:40;24.40;86.30
36424;DHT22;22458;45.328;9.514;2022-08-20T00:50:11;24.40;86.20
36424;DHT22;22458;45.328;9.514;2022-08-20T00:52:40;24.40;86.10
36424;DHT22;22458;45.328;9.514;2022-08-20T00:55:09;24.40;86.10
36424;DHT22;22458;45.328;9.514;2022-08-20T00:57:45;24.40;86.20
36424;DHT22;22458;45.328;9.514;2022-08-20T01:00:22;24.40;86.20
36424;DHT22;22458;45.328;9.514;2022-08-20T01:02:48;24.40;86.20
36424;DHT22;22458;45.328;9.514;2022-08-20T01:05:15;24.30;86.20
36424;DHT22;22458;45.328;9.514;2022-08-20T01:07:41;24.30;86.30
36424;DHT22;22458;45.328;9.514;2022-08-20T01:10:14;24.30;86.40
36424;DHT22;22458;45.328;9.514;2022-08-20T01:12:43;24.20;86.50
36424;DHT22;22458;45.328;9.514;2022-08-20T01:15:13;24.10;87.10
36424;DHT22;22458;45.328;9.514;2022-08-20T01:17:46;23.90;87.50
36424;DHT22;22458;45.328;9.514;2022-08-20T01:20:40;23.90;87.80
36424;DHT22;22458;45.328;9.514;2022-08-20T01:26:29;23.90;87.70
36424;DHT22;22458;45.328;9.514;2022-08-20T01:29:18;23.90;87.70
36424;DHT22;22458;45.328;9.514;2022-08-20T01:31:44;23.90;87.50
36424;DHT22;22458;45.328;9.514;2022-08-20T01:34:13;23.90;87.50
36424;DHT22;22458;45.328;9.514;2022-08-20T01:36:43;23.90;87.60
36424;DHT22;22458;45.328;9.514;2022-08-20T01:39:11;23.90;87.70
36424;DHT22;22458;45.328;9.514;2022-08-20T01:44:13;23.90;88.10
36424;DHT22;22458;45.328;9.514;2022-08-20T01:46:42;23.90;88.20
36424;DHT22;22458;45.328;9.514;2022-08-20T01:51:37;23.90;87.90
36424;DHT22;22458;45.328;9.514;2022-08-20T01:54:04;23.90;87.80
36424;DHT22;22458;45.328;9.514;2022-08-20T01:56:32;23.90;87.70
36424;DHT22;22458;45.328;9.514;2022-08-20T01:59:02;24.00;87.70
36424;DHT22;22458;45.328;9.514;2022-08-20T02:01:37;23.90;87.70
36424;DHT22;22458;45.328;9.514;2022-08-20T02:04:07;23.90;87.70
36424;DHT22;22458;45.328;9.514;2022-08-20T02:06:47;23.90;87.70
36424;DHT22;22458;45.328;9.514;2022-08-20T02:09:13;23.80;87.90
36424;DHT22;22458;45.328;9.514;2022-08-20T02:11:39;23.80;88.00
36424;DHT22;22458;45.328;9.514;2022-08-20T02:14:09;23.80;87.90
36424;DHT22;22458;45.328;9.514;2022-08-20T02:16:38;23.90;87.90
36424;DHT22;22458;45.328;9.514;2022-08-20T02:19:06;23.80;87.80
36424;DHT22;22458;45.328;9.514;2022-08-20T02:21:39;23.80;87.50
36424;DHT22;22458;45.328;9.514;2022-08-20T02:24:05;23.70;87.70
36424;DHT22;22458;45.328;9.514;2022-08-20T02:26:32;23.70;87.70
36424;DHT22;22458;45.328;9.514;2022-08-20T02:28:58;23.60;88.00
36424;DHT22;22458;45.328;9.514;2022-08-20T02:31:24;23.50;88.20
36424;DHT22;22458;45.328;9.514;2022-08-20T02:33:50;23.40;88.40
36424;DHT22;22458;45.328;9.514;2022-08-20T02:36:18;23.40;88.50
36424;DHT22;22458;45.328;9.514;2022-08-20T02:38:44;23.50;88.40
36424;DHT22;22458;45.328;9.514;2022-08-20T02:41:11;23.50;88.90
36424;DHT22;22458;45.328;9.514;2022-08-20T02:43:37;23.40;88.40
36424;DHT22;22458;45.328;9.514;2022-08-20T02:46:04;23.50;88.40
36424;DHT22;22458;45.328;9.514;2022-08-20T02:48:30;23.40;88.30
36424;DHT22;22458;45.328;9.514;2022-08-20T02:51:00;23.50;88.40
36424;DHT22;22458;45.328;9.514;2022-08-20T02:53:31;23.50;88.30
36424;DHT22;22458;45.328;9.514;2022-08-20T02:55:58;23.50;88.40
36424;DHT22;22458;45.328;9.514;2022-08-20T02:58:25;23.40;88.70
36424;DHT22;22458;45.328;9.514;2022-08-20T03:00:52;23.50;88.80
36424;DHT22;22458;45.328;9.514;2022-08-20T03:03:18;23.40;88.70
36424;DHT22;22458;45.328;9.514;2022-08-20T03:05:52;23.40;88.80
36424;DHT22;22458;45.328;9.514;2022-08-20T03:08:19;23.40;89.10
36424;DHT22;22458;45.328;9.514;2022-08-20T03:10:46;23.30;89.30
36424;DHT22;22458;45.328;9.514;2022-08-20T03:13:13;23.30;89.30
36424;DHT22;22458;45.328;9.514;2022-08-20T03:15:52;23.30;89.30
36424;DHT22;22458;45.328;9.514;2022-08-20T03:18:20;23.30;89.30
36424;DHT22;22458;45.328;9.514;2022-08-20T03:20:46;23.30;89.00
36424;DHT22;22458;45.328;9.514;2022-08-20T03:23:13;23.30;89.30
36424;DHT22;22458;45.328;9.514;2022-08-20T03:25:39;23.30;89.30
36424;DHT22;22458;45.328;9.514;2022-08-20T03:28:05;23.20;89.50
36424;DHT22;22458;45.328;9.514;2022-08-20T03:30:31;23.10;89.70
36424;DHT22;22458;45.328;9.514;2022-08-20T03:32:57;23.10;89.70
36424;DHT22;22458;45.328;9.514;2022-08-20T03:35:25;23.20;89.70
36424;DHT22;22458;45.328;9.514;2022-08-20T03:37:51;23.20;89.40
36424;DHT22;22458;45.328;9.514;2022-08-20T03:40:23;23.30;89.80
36424;DHT22;22458;45.328;9.514;2022-08-20T03:42:49;23.30;89.00
36424;DHT22;22458;45.328;9.514;2022-08-20T03:45:18;23.20;89.00
36424;DHT22;22458;45.328;9.514;2022-08-20T03:47:44;23.20;89.20
36424;DHT22;22458;45.328;9.514;2022-08-20T03:50:11;23.20;89.40
36424;DHT22;22458;45.328;9.514;2022-08-20T03:52:38;23.20;89.30
36424;DHT22;22458;45.328;9.514;2022-08-20T03:55:06;23.20;89.00
36424;DHT22;22458;45.328;9.514;2022-08-20T03:57:33;23.30;88.80
36424;DHT22;22458;45.328;9.514;2022-08-20T03:59:59;23.30;88.70
36424;DHT22;22458;45.328;9.514;2022-08-20T04:02:25;23.30;88.70
36424;DHT22;22458;45.328;9.514;2022-08-20T04:04:52;23.30;88.40
36424;DHT22;22458;45.328;9.514;2022-08-20T04:07:22;23.30;88.30
36424;DHT22;22458;45.328;9.514;2022-08-20T04:09:53;23.30;88.30
36424;DHT22;22458;45.328;9.514;2022-08-20T04:12:19;23.30;88.30
36424;DHT22;22458;45.328;9.514;2022-08-20T04:14:45;23.20;88.30
36424;DHT22;22458;45.328;9.514;2022-08-20T04:17:11;23.20;88.40
36424;DHT22;22458;45.328;9.514;2022-08-20T04:19:39;23.20;88.40
36424;DHT22;22458;45.328;9.514;2022-08-20T04:22:05;23.20;88.30
36424;DHT22;22458;45.328;9.514;2022-08-20T04:24:33;23.20;88.90
36424;DHT22;22458;45.328;9.514;2022-08-20T04:27:00;23.20;88.30
36424;DHT22;22458;45.328;9.514;2022-08-20T04:29:27;23.20;88.30
36424;DHT22;22458;45.328;9.514;2022-08-20T04:31:53;23.10;88.40
36424;DHT22;22458;45.328;9.514;2022-08-20T04:34:20;23.00;89.00
36424;DHT22;22458;45.328;9.514;2022-08-20T04:36:46;23.10;88.50
36424;DHT22;22458;45.328;9.514;2022-08-20T04:39:14;23.00;88.40
36424;DHT22;22458;45.328;9.514;2022-08-20T04:41:40;23.00;88.50
36424;DHT22;22458;45.328;9.514;2022-08-20T04:44:07;22.90;88.30
36424;DHT22;22458;45.328;9.514;2022-08-20T04:46:33;22.90;88.20
36424;DHT22;22458;45.328;9.514;2022-08-20T04:48:59;22.90;88.10
36424;DHT22;22458;45.328;9.514;2022-08-20T04:51:27;22.80;88.20
36424;DHT22;22458;45.328;9.514;2022-08-20T04:53:55;22.70;88.50
36424;DHT22;22458;45.328;9.514;2022-08-20T04:56:23;22.50;88.80
36424;DHT22;22458;45.328;9.514;2022-08-20T04:58:52;22.40;89.20
36424;DHT22;22458;45.328;9.514;2022-08-20T05:01:18;22.40;89.30
36424;DHT22;22458;45.328;9.514;2022-08-20T05:03:44;22.40;89.20
36424;DHT22;22458;45.328;9.514;2022-08-20T05:06:12;22.40;89.10
36424;DHT22;22458;45.328;9.514;2022-08-20T05:08:39;22.40;89.00
36424;DHT22;22458;45.328;9.514;2022-08-20T05:11:05;22.40;88.90
36424;DHT22;22458;45.328;9.514;2022-08-20T05:13:31;22.40;88.90
36424;DHT22;22458;45.328;9.514;2022-08-20T05:15:57;22.40;89.20
36424;DHT22;22458;45.328;9.514;2022-08-20T05:18:26;22.30;89.30
36424;DHT22;22458;45.328;9.514;2022-08-20T05:20:52;22.20;89.30
36424;DHT22;22458;45.328;9.514;2022-08-20T05:23:19;22.20;89.80
36424;DHT22;22458;45.328;9.514;2022-08-20T05:25:49;22.20;89.80
36424;DHT22;22458;45.328;9.514;2022-08-20T05:28:27;22.10;90.00
36424;DHT22;22458;45.328;9.514;2022-08-20T05:30:59;22.10;90.00
36424;DHT22;22458;45.328;9.514;2022-08-20T05:33:26;22.00;90.10
36424;DHT22;22458;45.328;9.514;2022-08-20T05:35:53;21.90;90.20
36424;DHT22;22458;45.328;9.514;2022-08-20T05:38:23;21.90;90.30
36424;DHT22;22458;45.328;9.514;2022-08-20T05:40:50;21.90;90.40
36424;DHT22;22458;45.328;9.514;2022-08-20T05:43:16;21.80;90.40
36424;DHT22;22458;45.328;9.514;2022-08-20T05:45:44;21.90;90.50
36424;DHT22;22458;45.328;9.514;2022-08-20T05:48:12;21.90;90.40
36424;DHT22;22458;45.328;9.514;2022-08-20T05:50:39;21.90;90.30
36424;DHT22;22458;45.328;9.514;2022-08-20T05:53:05;21.90;90.30
36424;DHT22;22458;45.328;9.514;2022-08-20T05:55:31;21.90;90.40
36424;DHT22;22458;45.328;9.514;2022-08-20T05:58:02;21.90;90.50
36424;DHT22;22458;45.328;9.514;2022-08-20T06:00:29;21.80;90.50
36424;DHT22;22458;45.328;9.514;2022-08-20T06:02:55;21.90;90.50
36424;DHT22;22458;45.328;9.514;2022-08-20T06:05:40;21.90;90.60
36424;DHT22;22458;45.328;9.514;2022-08-20T06:08:07;22.00;90.50
36424;DHT22;22458;45.328;9.514;2022-08-20T06:10:34;22.00;90.40
36424;DHT22;22458;45.328;9.514;2022-08-20T06:13:00;22.00;90.30
36424;DHT22;22458;45.328;9.514;2022-08-20T06:15:28;22.00;90.30
36424;DHT22;22458;45.328;9.514;2022-08-20T06:17:54;22.10;90.30
36424;DHT22;22458;45.328;9.514;2022-08-20T06:20:20;22.20;90.10
36424;DHT22;22458;45.328;9.514;2022-08-20T06:22:45;22.20;90.00
36424;DHT22;22458;45.328;9.514;2022-08-20T06:25:11;22.40;90.00
36424;DHT22;22458;45.328;9.514;2022-08-20T06:27:39;22.30;90.00
36424;DHT22;22458;45.328;9.514;2022-08-20T06:30:06;22.40;89.90
36424;DHT22;22458;45.328;9.514;2022-08-20T06:32:32;22.50;89.80
36424;DHT22;22458;45.328;9.514;2022-08-20T06:35:00;22.50;89.30
36424;DHT22;22458;45.328;9.514;2022-08-20T06:37:27;22.60;89.00
36424;DHT22;22458;45.328;9.514;2022-08-20T06:39:53;22.60;88.90
36424;DHT22;22458;45.328;9.514;2022-08-20T06:42:20;22.70;88.80
36424;DHT22;22458;45.328;9.514;2022-08-20T06:44:49;22.70;88.70
36424;DHT22;22458;45.328;9.514;2022-08-20T06:47:20;22.80;88.40
36424;DHT22;22458;45.328;9.514;2022-08-20T06:49:46;22.80;88.30
36424;DHT22;22458;45.328;9.514;2022-08-20T06:52:14;22.90;88.30
36424;DHT22;22458;45.328;9.514;2022-08-20T06:54:44;23.00;88.10
36424;DHT22;22458;45.328;9.514;2022-08-20T06:57:09;23.10;87.70
36424;DHT22;22458;45.328;9.514;2022-08-20T06:59:35;23.20;87.60
36424;DHT22;22458;45.328;9.514;2022-08-20T07:02:01;23.20;87.50
36424;DHT22;22458;45.328;9.514;2022-08-20T07:04:27;23.20;87.00
36424;DHT22;22458;45.328;9.514;2022-08-20T07:06:54;23.30;86.80
36424;DHT22;22458;45.328;9.514;2022-08-20T07:09:20;23.30;86.70
36424;DHT22;22458;45.328;9.514;2022-08-20T07:11:47;23.40;86.40
36424;DHT22;22458;45.328;9.514;2022-08-20T07:14:15;23.40;86.30
36424;DHT22;22458;45.328;9.514;2022-08-20T07:16:41;23.50;85.90
36424;DHT22;22458;45.328;9.514;2022-08-20T07:19:07;23.50;85.00
36424;DHT22;22458;45.328;9.514;2022-08-20T07:21:33;23.60;84.80
36424;DHT22;22458;45.328;9.514;2022-08-20T07:23:59;23.60;84.60
36424;DHT22;22458;45.328;9.514;2022-08-20T07:26:25;23.70;84.30
36424;DHT22;22458;45.328;9.514;2022-08-20T07:28:51;23.80;84.00
36424;DHT22;22458;45.328;9.514;2022-08-20T07:31:17;23.90;83.40
36424;DHT22;22458;45.328;9.514;2022-08-20T07:34:02;23.90;83.20
36424;DHT22;22458;45.328;9.514;2022-08-20T07:36:27;24.00;83.00
36424;DHT22;22458;45.328;9.514;2022-08-20T07:38:54;24.10;82.30
36424;DHT22;22458;45.328;9.514;2022-08-20T07:41:20;24.10;81.50
36424;DHT22;22458;45.328;9.514;2022-08-20T07:43:46;24.10;81.20
36424;DHT22;22458;45.328;9.514;2022-08-20T07:46:14;24.20;81.20
36424;DHT22;22458;45.328;9.514;2022-08-20T07:48:42;24.30;81.30
36424;DHT22;22458;45.328;9.514;2022-08-20T07:51:15;24.40;81.20
36424;DHT22;22458;45.328;9.514;2022-08-20T07:53:45;24.50;81.00
36424;DHT22;22458;45.328;9.514;2022-08-20T07:56:14;24.50;80.80
36424;DHT22;22458;45.328;9.514;2022-08-20T07:58:49;24.70;81.00
36424;DHT22;22458;45.328;9.514;2022-08-20T08:01:20;24.80;80.80
36424;DHT22;22458;45.328;9.514;2022-08-20T08:03:46;24.90;80.80
36424;DHT22;22458;45.328;9.514;2022-08-20T08:06:12;24.90;80.80
36424;DHT22;22458;45.328;9.514;2022-08-20T08:08:39;24.90;80.70
36424;DHT22;22458;45.328;9.514;2022-08-20T08:11:06;25.00;80.50
36424;DHT22;22458;45.328;9.514;2022-08-20T08:13:38;25.00;80.40
36424;DHT22;22458;45.328;9.514;2022-08-20T08:16:06;25.10;80.50
36424;DHT22;22458;45.328;9.514;2022-08-20T08:18:42;25.20;80.50
36424;DHT22;22458;45.328;9.514;2022-08-20T08:21:09;25.40;80.20
36424;DHT22;22458;45.328;9.514;2022-08-20T08:23:38;25.50;79.70
36424;DHT22;22458;45.328;9.514;2022-08-20T08:26:09;25.60;79.50
36424;DHT22;22458;45.328;9.514;2022-08-20T08:28:35;25.80;79.20
36424;DHT22;22458;45.328;9.514;2022-08-20T08:31:01;25.90;78.80
36424;DHT22;22458;45.328;9.514;2022-08-20T08:33:29;26.00;78.60
36424;DHT22;22458;45.328;9.514;2022-08-20T08:38:28;26.10;78.20
36424;DHT22;22458;45.328;9.514;2022-08-20T08:40:57;26.30;78.30
36424;DHT22;22458;45.328;9.514;2022-08-20T08:43:27;26.30;77.80
36424;DHT22;22458;45.328;9.514;2022-08-20T08:46:09;26.30;77.60
36424;DHT22;22458;45.328;9.514;2022-08-20T08:48:38;26.40;77.10
36424;DHT22;22458;45.328;9.514;2022-08-20T08:51:06;26.40;76.90
36424;DHT22;22458;45.328;9.514;2022-08-20T08:53:39;26.40;76.70
36424;DHT22;22458;45.328;9.514;2022-08-20T08:56:07;26.50;76.70
36424;DHT22;22458;45.328;9.514;2022-08-20T08:58:34;26.60;76.20
36424;DHT22;22458;45.328;9.514;2022-08-20T09:01:08;26.90;75.80
36424;DHT22;22458;45.328;9.514;2022-08-20T09:03:37;26.90;75.50
36424;DHT22;22458;45.328;9.514;2022-08-20T09:06:04;27.00;75.40
36424;DHT22;22458;45.328;9.514;2022-08-20T09:08:45;27.10;75.00
36424;DHT22;22458;45.328;9.514;2022-08-20T09:11:13;27.20;74.50
36424;DHT22;22458;45.328;9.514;2022-08-20T09:13:39;27.20;74.70
36424;DHT22;22458;45.328;9.514;2022-08-20T09:16:05;27.30;74.70
36424;DHT22;22458;45.328;9.514;2022-08-20T09:18:31;27.40;74.30
36424;DHT22;22458;45.328;9.514;2022-08-20T09:20:57;27.40;73.90
36424;DHT22;22458;45.328;9.514;2022-08-20T09:23:23;27.60;73.80
36424;DHT22;22458;45.328;9.514;2022-08-20T09:25:49;27.70;73.30
36424;DHT22;22458;45.328;9.514;2022-08-20T09:28:15;27.80;72.50
36424;DHT22;22458;45.328;9.514;2022-08-20T09:30:41;27.90;71.90
36424;DHT22;22458;45.328;9.514;2022-08-20T09:33:07;28.10;70.80
36424;DHT22;22458;45.328;9.514;2022-08-20T09:35:32;28.10;70.40
36424;DHT22;22458;45.328;9.514;2022-08-20T09:37:59;28.20;70.40
36424;DHT22;22458;45.328;9.514;2022-08-20T09:40:25;28.20;69.70
36424;DHT22;22458;45.328;9.514;2022-08-20T09:42:50;28.30;69.50
36424;DHT22;22458;45.328;9.514;2022-08-20T09:45:19;28.50;69.60
36424;DHT22;22458;45.328;9.514;2022-08-20T09:47:45;28.60;69.00
36424;DHT22;22458;45.328;9.514;2022-08-20T09:50:11;28.60;68.80
36424;DHT22;22458;45.328;9.514;2022-08-20T09:52:41;28.60;68.50
36424;DHT22;22458;45.328;9.514;2022-08-20T09:55:32;28.70;68.80
36424;DHT22;22458;45.328;9.514;2022-08-20T09:58:00;28.80;68.00
36424;DHT22;22458;45.328;9.514;2022-08-20T10:00:26;28.90;68.10
36424;DHT22;22458;45.328;9.514;2022-08-20T10:02:51;29.10;67.40
36424;DHT22;22458;45.328;9.514;2022-08-20T10:05:17;29.30;67.00
36424;DHT22;22458;45.328;9.514;2022-08-20T10:07:43;29.30;67.00
36424;DHT22;22458;45.328;9.514;2022-08-20T10:10:12;29.30;66.70
36424;DHT22;22458;45.328;9.514;2022-08-20T10:12:38;29.40;66.00
36424;DHT22;22458;45.328;9.514;2022-08-20T10:15:06;29.30;64.40
36424;DHT22;22458;45.328;9.514;2022-08-20T10:17:36;29.30;65.00
36424;DHT22;22458;45.328;9.514;2022-08-20T10:20:02;29.50;65.00
36424;DHT22;22458;45.328;9.514;2022-08-20T10:22:28;29.60;64.70
36424;DHT22;22458;45.328;9.514;2022-08-20T10:24:54;29.70;64.40
36424;DHT22;22458;45.328;9.514;2022-08-20T10:27:20;29.80;63.70
36424;DHT22;22458;45.328;9.514;2022-08-20T10:29:45;29.90;63.30
36424;DHT22;22458;45.328;9.514;2022-08-20T10:32:13;30.00;62.80
36424;DHT22;22458;45.328;9.514;2022-08-20T10:34:42;30.00;62.10
36424;DHT22;22458;45.328;9.514;2022-08-20T10:37:09;30.00;60.80
36424;DHT22;22458;45.328;9.514;2022-08-20T10:39:35;30.10;60.80
36424;DHT22;22458;45.328;9.514;2022-08-20T10:42:00;30.20;60.50
36424;DHT22;22458;45.328;9.514;2022-08-20T10:44:26;30.20;60.10
36424;DHT22;22458;45.328;9.514;2022-08-20T10:46:52;30.40;59.20
36424;DHT22;22458;45.328;9.514;2022-08-20T10:49:18;30.40;58.60
36424;DHT22;22458;45.328;9.514;2022-08-20T10:51:43;30.60;58.40
36424;DHT22;22458;45.328;9.514;2022-08-20T10:54:09;30.70;58.40
36424;DHT22;22458;45.328;9.514;2022-08-20T10:56:35;30.80;58.40
36424;DHT22;22458;45.328;9.514;2022-08-20T10:59:00;31.00;58.30
36424;DHT22;22458;45.328;9.514;2022-08-20T11:01:26;31.10;58.20
36424;DHT22;22458;45.328;9.514;2022-08-20T11:03:52;31.20;58.00
36424;DHT22;22458;45.328;9.514;2022-08-20T11:06:17;31.20;58.10
36424;DHT22;22458;45.328;9.514;2022-08-20T11:08:43;31.20;58.20
36424;DHT22;22458;45.328;9.514;2022-08-20T11:11:09;31.40;57.30
36424;DHT22;22458;45.328;9.514;2022-08-20T11:13:35;31.50;56.80
36424;DHT22;22458;45.328;9.514;2022-08-20T11:16:02;31.70;56.20
36424;DHT22;22458;45.328;9.514;2022-08-20T11:18:29;31.60;54.60
36424;DHT22;22458;45.328;9.514;2022-08-20T11:20:55;31.70;54.90
36424;DHT22;22458;45.328;9.514;2022-08-20T11:23:20;32.00;54.50
36424;DHT22;22458;45.328;9.514;2022-08-20T11:25:47;32.40;53.90
36424;DHT22;22458;45.328;9.514;2022-08-20T11:28:13;32.90;53.20
36424;DHT22;22458;45.328;9.514;2022-08-20T11:30:39;33.30;52.20
36424;DHT22;22458;45.328;9.514;2022-08-20T11:33:06;33.60;51.90
36424;DHT22;22458;45.328;9.514;2022-08-20T11:35:34;33.80;51.50
36424;DHT22;22458;45.328;9.514;2022-08-20T11:38:00;33.80;51.40
36424;DHT22;22458;45.328;9.514;2022-08-20T11:40:28;33.80;51.10
36424;DHT22;22458;45.328;9.514;2022-08-20T11:42:54;33.70;51.10
36424;DHT22;22458;45.328;9.514;2022-08-20T11:45:19;33.50;51.40
36424;DHT22;22458;45.328;9.514;2022-08-20T11:47:45;33.60;51.40
36424;DHT22;22458;45.328;9.514;2022-08-20T11:50:17;33.40;51.00
36424;DHT22;22458;45.328;9.514;2022-08-20T11:52:43;33.30;50.90
36424;DHT22;22458;45.328;9.514;2022-08-20T11:55:12;33.30;50.70
36424;DHT22;22458;45.328;9.514;2022-08-20T11:57:42;33.30;50.50
36424;DHT22;22458;45.328;9.514;2022-08-20T12:00:11;33.30;50.30
36424;DHT22;22458;45.328;9.514;2022-08-20T12:02:38;33.40;50.30
36424;DHT22;22458;45.328;9.514;2022-08-20T12:05:04;33.30;50.10
36424;DHT22;22458;45.328;9.514;2022-08-20T12:07:30;33.20;50.10
36424;DHT22;22458;45.328;9.514;2022-08-20T12:09:56;33.30;50.20
36424;DHT22;22458;45.328;9.514;2022-08-20T12:12:22;33.40;50.10
36424;DHT22;22458;45.328;9.514;2022-08-20T12:14:53;33.50;50.20
36424;DHT22;22458;45.328;9.514;2022-08-20T12:17:22;33.60;50.30
36424;DHT22;22458;45.328;9.514;2022-08-20T12:19:50;33.50;50.20
36424;DHT22;22458;45.328;9.514;2022-08-20T12:22:16;33.50;50.20
36424;DHT22;22458;45.328;9.514;2022-08-20T12:24:43;33.50;50.40
36424;DHT22;22458;45.328;9.514;2022-08-20T12:27:13;33.70;49.50
36424;DHT22;22458;45.328;9.514;2022-08-20T12:29:41;33.70;49.40
36424;DHT22;22458;45.328;9.514;2022-08-20T12:32:07;33.70;49.30
36424;DHT22;22458;45.328;9.514;2022-08-20T12:34:35;33.80;48.60
36424;DHT22;22458;45.328;9.514;2022-08-20T12:37:07;33.80;48.60
36424;DHT22;22458;45.328;9.514;2022-08-20T12:39:33;33.90;49.10
36424;DHT22;22458;45.328;9.514;2022-08-20T12:42:00;33.90;49.30
36424;DHT22;22458;45.328;9.514;2022-08-20T12:44:30;33.90;49.00
36424;DHT22;22458;45.328;9.514;2022-08-20T12:47:35;34.00;48.00
36424;DHT22;22458;45.328;9.514;2022-08-20T12:50:22;34.30;47.50
36424;DHT22;22458;45.328;9.514;2022-08-20T12:52:48;34.60;47.00
36424;DHT22;22458;45.328;9.514;2022-08-20T12:55:17;35.00;47.30
36424;DHT22;22458;45.328;9.514;2022-08-20T12:57:48;35.30;47.30
36424;DHT22;22458;45.328;9.514;2022-08-20T13:00:20;35.60;47.50
36424;DHT22;22458;45.328;9.514;2022-08-20T13:02:51;35.50;46.60
36424;DHT22;22458;45.328;9.514;2022-08-20T13:05:18;35.40;46.70
36424;DHT22;22458;45.328;9.514;2022-08-20T13:07:45;35.30;46.60
36424;DHT22;22458;45.328;9.514;2022-08-20T13:10:15;35.00;46.20
36424;DHT22;22458;45.328;9.514;2022-08-20T13:12:41;34.90;45.70
36424;DHT22;22458;45.328;9.514;2022-08-20T13:15:08;34.80;44.80
36424;DHT22;22458;45.328;9.514;2022-08-20T13:17:34;34.60;44.30
36424;DHT22;22458;45.328;9.514;2022-08-20T13:19:59;34.70;44.40
36424;DHT22;22458;45.328;9.514;2022-08-20T13:22:25;34.70;44.50
36424;DHT22;22458;45.328;9.514;2022-08-20T13:24:51;34.70;44.50
36424;DHT22;22458;45.328;9.514;2022-08-20T13:27:18;34.80;44.90
36424;DHT22;22458;45.328;9.514;2022-08-20T13:29:46;34.90;44.50
36424;DHT22;22458;45.328;9.514;2022-08-20T13:32:12;35.20;44.40
36424;DHT22;22458;45.328;9.514;2022-08-20T13:34:38;35.30;43.90
36424;DHT22;22458;45.328;9.514;2022-08-20T13:39:38;35.20;43.00
36424;DHT22;22458;45.328;9.514;2022-08-20T13:42:04;35.20;43.30
36424;DHT22;22458;45.328;9.514;2022-08-20T13:44:30;35.20;43.30
36424;DHT22;22458;45.328;9.514;2022-08-20T13:46:56;35.20;43.90
36424;DHT22;22458;45.328;9.514;2022-08-20T13:49:22;35.00;44.40
36424;DHT22;22458;45.328;9.514;2022-08-20T13:51:47;35.00;44.60
36424;DHT22;22458;45.328;9.514;2022-08-20T13:54:13;34.90;44.60
36424;DHT22;22458;45.328;9.514;2022-08-20T13:56:39;34.90;44.40
36424;DHT22;22458;45.328;9.514;2022-08-20T13:59:04;35.00;44.50
36424;DHT22;22458;45.328;9.514;2022-08-20T14:01:30;35.00;44.70
36424;DHT22;22458;45.328;9.514;2022-08-20T14:03:56;35.10;45.20
36424;DHT22;22458;45.328;9.514;2022-08-20T14:06:21;35.20;44.60
36424;DHT22;22458;45.328;9.514;2022-08-20T14:08:47;35.60;44.20
36424;DHT22;22458;45.328;9.514;2022-08-20T14:11:13;36.00;44.00
36424;DHT22;22458;45.328;9.514;2022-08-20T14:13:39;36.10;43.00
36424;DHT22;22458;45.328;9.514;2022-08-20T14:16:05;36.50;43.10
36424;DHT22;22458;45.328;9.514;2022-08-20T14:18:30;36.80;42.80
36424;DHT22;22458;45.328;9.514;2022-08-20T14:20:56;37.00;42.60
36424;DHT22;22458;45.328;9.514;2022-08-20T14:23:22;36.90;42.20
36424;DHT22;22458;45.328;9.514;2022-08-20T14:25:48;36.90;42.40
36424;DHT22;22458;45.328;9.514;2022-08-20T14:28:20;36.80;42.20
36424;DHT22;22458;45.328;9.514;2022-08-20T14:30:46;36.70;42.30
36424;DHT22;22458;45.328;9.514;2022-08-20T14:33:13;36.30;41.70
36424;DHT22;22458;45.328;9.514;2022-08-20T14:35:39;36.10;42.20
36424;DHT22;22458;45.328;9.514;2022-08-20T14:38:05;36.00;42.60
36424;DHT22;22458;45.328;9.514;2022-08-20T14:40:31;35.80;42.90
36424;DHT22;22458;45.328;9.514;2022-08-20T14:42:57;35.70;42.90
36424;DHT22;22458;45.328;9.514;2022-08-20T14:45:24;35.60;42.80
36424;DHT22;22458;45.328;9.514;2022-08-20T14:47:52;35.60;42.60
36424;DHT22;22458;45.328;9.514;2022-08-20T14:50:31;35.60;42.30
36424;DHT22;22458;45.328;9.514;2022-08-20T14:52:59;35.70;42.50
36424;DHT22;22458;45.328;9.514;2022-08-20T14:55:29;35.70;42.50
36424;DHT22;22458;45.328;9.514;2022-08-20T14:57:55;36.00;42.30
36424;DHT22;22458;45.328;9.514;2022-08-20T15:00:24;36.10;42.40
36424;DHT22;22458;45.328;9.514;2022-08-20T15:02:50;36.30;42.90
36424;DHT22;22458;45.328;9.514;2022-08-20T15:05:16;36.60;42.40
36424;DHT22;22458;45.328;9.514;2022-08-20T15:07:44;36.60;42.70
36424;DHT22;22458;45.328;9.514;2022-08-20T15:10:15;36.50;42.60
36424;DHT22;22458;45.328;9.514;2022-08-20T15:12:41;36.40;42.80
36424;DHT22;22458;45.328;9.514;2022-08-20T15:15:09;36.20;42.90
36424;DHT22;22458;45.328;9.514;2022-08-20T15:17:35;36.20;43.00
36424;DHT22;22458;45.328;9.514;2022-08-20T15:20:04;36.10;43.30
36424;DHT22;22458;45.328;9.514;2022-08-20T15:22:35;36.10;43.20
36424;DHT22;22458;45.328;9.514;2022-08-20T15:25:01;36.40;42.80
36424;DHT22;22458;45.328;9.514;2022-08-20T15:27:27;36.70;42.30
36424;DHT22;22458;45.328;9.514;2022-08-20T15:29:53;36.90;41.70
36424;DHT22;22458;45.328;9.514;2022-08-20T15:32:19;37.00;41.60
36424;DHT22;22458;45.328;9.514;2022-08-20T15:34:46;37.10;41.30
36424;DHT22;22458;45.328;9.514;2022-08-20T15:37:16;37.20;41.30
36424;DHT22;22458;45.328;9.514;2022-08-20T15:39:42;37.00;41.70
36424;DHT22;22458;45.328;9.514;2022-08-20T15:42:09;36.80;41.10
36424;DHT22;22458;45.328;9.514;2022-08-20T15:44:36;36.40;41.30
36424;DHT22;22458;45.328;9.514;2022-08-20T15:47:21;36.10;41.40